Time;durP1;ratioP1;P1;durP2;ratioP2;P2;SDS_P1;SDS_P2;PMS_P1;PMS_P2;Temp;Humidity;BMP_temperature;BMP_pressure;BME280_temperature;BME280_humidity;BME280_pressure;Samples;Min_cycle;Max_cycle;Signal;HPM_P1;HPM_P2
2022/11/22 00:00:27;;;;;;;3.00;1.00;;;;;;;19.24;43.69;99035.00;5063766;28;20029;-72
2022/11/22 00:02:53;;;;;;;3.60;1.50;;;;;;;19.26;43.65;99037.47;5063772;28;20028;-73
2022/11/22 00:05:19;;;;;;;3.10;1.20;;;;;;;19.24;43.46;99034.19;5064008;28;20028;-72
2022/11/22 00:07:44;;;;;;;3.60;1.30;;;;;;;19.24;43.54;99028.91;5060470;28;20036;-73
2022/11/22 00:10:12;;;;;;;3.72;1.20;;;;;;;19.21;43.53;99030.88;5064788;28;20032;-72
2022/11/22 00:12:38;;;;;;;4.13;1.38;;;;;;;19.19;43.48;99018.84;5064106;28;20543;-73
2022/11/22 00:15:04;;;;;;;3.65;1.42;;;;;;;19.19;43.46;99027.59;5064408;28;20040;-72
2022/11/22 00:17:30;;;;;;;3.90;1.10;;;;;;;19.18;43.42;99031.25;5064546;28;20376;-72
2022/11/22 00:19:56;;;;;;;3.15;1.17;;;;;;;19.15;43.46;99034.25;5064188;28;20472;-71
2022/11/22 00:22:21;;;;;;;3.65;1.15;;;;;;;19.16;43.34;99027.94;5063846;28;20040;-72
2022/11/22 00:24:47;;;;;;;2.70;1.13;;;;;;;19.16;43.45;99029.78;5063979;28;20036;-72
2022/11/22 00:27:13;;;;;;;2.92;1.23;;;;;;;19.15;43.25;99030.75;5064799;28;20110;-74
2022/11/22 00:29:38;;;;;;;3.17;1.27;;;;;;;19.12;43.62;99025.81;5064584;28;20478;-73
2022/11/22 00:32:03;;;;;;;4.20;1.30;;;;;;;19.12;43.30;99028.47;5062862;28;20265;-73
2022/11/22 00:34:28;;;;;;;3.70;1.23;;;;;;;19.08;43.37;99028.00;5062840;28;20098;-74
2022/11/22 00:36:54;;;;;;;3.50;1.15;;;;;;;19.08;43.34;99029.81;5064232;28;20063;-72
2022/11/22 00:39:19;;;;;;;3.75;1.38;;;;;;;19.10;43.30;99041.03;5063543;28;20045;-72
2022/11/22 00:41:44;;;;;;;4.13;1.23;;;;;;;19.05;43.33;99030.16;5063465;28;20032;-74
2022/11/22 00:44:09;;;;;;;2.97;0.90;;;;;;;19.02;43.41;99029.50;5063264;28;20285;-72
2022/11/22 00:46:35;;;;;;;4.47;1.30;;;;;;;19.04;43.09;99031.97;5063608;28;20310;-72
2022/11/22 00:49:00;;;;;;;2.65;1.13;;;;;;;19.02;43.01;99033.97;5062926;28;20060;-71
2022/11/22 00:51:25;;;;;;;4.43;1.55;;;;;;;19.06;43.19;99034.44;5063060;28;20050;-73
2022/11/22 00:53:51;;;;;;;2.93;1.30;;;;;;;18.99;43.16;99019.31;5062980;28;20040;-73
2022/11/22 00:56:16;;;;;;;2.97;1.10;;;;;;;19.02;42.96;99032.16;5062967;28;20741;-72
2022/11/22 00:58:41;;;;;;;3.65;1.15;;;;;;;19.01;43.13;99025.25;5062828;28;20043;-73
2022/11/22 01:01:06;;;;;;;4.20;1.10;;;;;;;18.95;43.03;99020.66;5063359;28;20114;-72
2022/11/22 01:03:32;;;;;;;3.15;1.10;;;;;;;18.99;43.01;99027.25;5062252;28;20375;-75
2022/11/22 01:05:57;;;;;;;3.53;1.00;;;;;;;18.97;43.06;99017.84;5059523;28;20040;-73
2022/11/22 01:08:22;;;;;;;3.43;1.20;;;;;;;18.92;42.98;99012.28;5062777;28;20028;-73
2022/11/22 01:10:48;;;;;;;3.20;1.23;;;;;;;18.97;42.95;99033.69;5062881;28;20990;-73
2022/11/22 01:13:13;;;;;;;3.60;1.20;;;;;;;18.97;42.94;99026.56;5062364;28;20444;-73
2022/11/22 01:15:38;;;;;;;4.07;1.10;;;;;;;18.93;42.59;99022.66;5062648;28;20051;-73
2022/11/22 01:18:04;;;;;;;2.97;1.20;;;;;;;18.96;42.88;99037.31;5062442;28;20161;-73
2022/11/22 01:20:29;;;;;;;2.97;0.98;;;;;;;18.94;42.78;99048.03;5062283;28;20041;-75
2022/11/22 01:22:55;;;;;;;3.60;1.15;;;;;;;18.93;42.76;99046.41;5062230;28;20139;-72
2022/11/22 01:25:21;;;;;;;2.13;0.85;;;;;;;18.92;42.63;99044.75;5061660;28;20143;-72
2022/11/22 01:27:46;;;;;;;3.28;1.10;;;;;;;18.87;42.57;99036.53;5061832;28;20202;-72
2022/11/22 01:30:12;;;;;;;3.97;1.10;;;;;;;18.90;42.60;99043.28;5061890;28;20059;-73
2022/11/22 01:32:37;;;;;;;3.92;1.15;;;;;;;18.88;42.75;99040.81;5061716;28;20028;-73
2022/11/22 01:35:03;;;;;;;3.00;1.10;;;;;;;18.89;42.48;99045.09;5062250;28;20048;-73
2022/11/22 01:37:28;;;;;;;2.97;1.30;;;;;;;18.87;42.75;99033.06;5062161;28;20032;-73
2022/11/22 01:39:53;;;;;;;3.15;1.10;;;;;;;18.87;42.56;99035.69;5061921;28;20032;-73
2022/11/22 01:42:18;;;;;;;2.67;1.00;;;;;;;18.83;42.37;99043.97;5061937;28;20823;-74
2022/11/22 01:44:47;;;;;;;2.70;1.00;;;;;;;18.82;42.73;99050.22;5062095;28;20118;-71
2022/11/22 01:47:24;;;;;;;3.35;1.10;;;;;;;18.82;42.59;99057.31;5061785;28;20033;-72
2022/11/22 01:49:58;;;;;;;3.13;1.20;;;;;;;18.83;42.49;99058.94;5061860;28;20036;-73
2022/11/22 01:52:24;;;;;;;;;;;;;;;18.88;42.26;99063.75;5062114;28;20032;-71
2022/11/22 01:54:55;;;;;;;4.10;1.33;;;;;;;18.84;42.19;99066.72;5062107;28;19919;-73
2022/11/22 01:57:25;;;;;;;3.40;1.05;;;;;;;18.80;42.11;99065.41;5061967;28;20039;-73
2022/11/22 02:00:10;;;;;;;3.42;1.10;;;;;;;18.74;42.50;99058.19;5077505;28;20548;-73
2022/11/22 02:02:36;;;;;;;4.18;1.20;;;;;;;18.78;42.63;99061.28;5058034;28;20032;-73
2022/11/22 02:05:05;;;;;;;3.90;1.10;;;;;;;18.77;42.44;99059.63;5061317;28;20032;-74
2022/11/22 02:07:42;;;;;;;2.05;0.90;;;;;;;18.75;42.59;99070.34;5061297;28;20440;-73
2022/11/22 02:10:08;;;;;;;3.53;1.00;;;;;;;18.76;42.60;99069.38;5061497;28;20036;-73
2022/11/22 02:12:35;;;;;;;3.20;1.08;;;;;;;18.72;42.67;99061.97;5060749;28;20535;-73
2022/11/22 02:15:01;;;;;;;3.25;0.95;;;;;;;18.73;42.71;99076.81;5060132;28;20444;-74
2022/11/22 02:17:27;;;;;;;4.05;1.30;;;;;;;18.72;42.60;99069.88;5059932;28;20503;-72
2022/11/22 02:19:53;;;;;;;1.83;0.90;;;;;;;18.73;42.36;99072.34;5061227;28;20037;-73
2022/11/22 02:22:39;;;;;;;4.25;1.45;;;;;;;18.68;42.36;99067.59;5061345;28;20116;-74
2022/11/22 02:25:35;;;;;;;3.25;1.10;;;;;;;18.74;42.39;99073.16;5060958;28;20102;-75
2022/11/22 02:28:00;;;;;;;3.50;1.02;;;;;;;18.73;42.27;99072.34;5061646;28;20066;-74
2022/11/22 02:30:26;;;;;;;4.57;1.02;;;;;;;18.72;42.22;99073.34;5061903;28;20063;-74
2022/11/22 02:32:51;;;;;;;3.20;1.20;;;;;;;18.66;42.19;99066.94;5059700;28;20034;-73
2022/11/22 02:35:18;;;;;;;4.95;1.13;;;;;;;18.71;42.06;99084.91;5061327;28;20075;-75
2022/11/22 02:37:45;;;;;;;3.38;0.95;;;;;;;18.70;42.24;99085.88;5060484;28;20032;-73
2022/11/22 02:40:14;;;;;;;3.65;1.00;;;;;;;18.66;42.31;99081.97;5061237;28;20492;-75
2022/11/22 02:42:46;;;;;;;3.08;1.00;;;;;;;18.65;42.17;99082.94;5060773;28;20084;-73
2022/11/22 02:45:12;;;;;;;3.38;1.20;;;;;;;18.66;42.34;99076.69;5060671;28;20452;-73
2022/11/22 02:47:37;;;;;;;4.88;1.48;;;;;;;18.66;42.16;99084.59;5060996;28;20473;-72
2022/11/22 02:50:03;;;;;;;5.38;1.10;;;;;;;18.66;42.16;99085.41;5060869;28;20028;-72
2022/11/22 02:52:28;;;;;;;3.85;1.02;;;;;;;18.66;42.27;99085.41;5060864;28;20461;-75
2022/11/22 02:54:53;;;;;;;4.50;1.13;;;;;;;18.65;42.06;99090.88;5061714;28;20041;-74
2022/11/22 02:57:19;;;;;;;3.92;1.30;;;;;;;18.64;42.03;99097.97;5059848;28;20396;-73
2022/11/22 02:59:44;;;;;;;4.65;1.10;;;;;;;18.64;41.90;99094.47;5061355;28;20037;-71
2022/11/22 03:02:09;;;;;;;2.08;0.90;;;;;;;18.56;42.05;99074.22;5061385;28;20055;-72
2022/11/22 03:04:34;;;;;;;3.30;1.08;;;;;;;18.61;41.91;99079.00;5060792;28;20029;-73
2022/11/22 03:07:00;;;;;;;3.28;1.20;;;;;;;18.60;42.10;99082.66;5060852;28;20136;-74
2022/11/22 03:09:27;;;;;;;3.08;1.10;;;;;;;18.57;41.80;99075.06;5060772;28;20384;-74
2022/11/22 03:11:53;;;;;;;3.45;0.90;;;;;;;18.61;42.14;99089.53;5060662;28;20040;-73
2022/11/22 03:14:18;;;;;;;3.95;1.20;;;;;;;18.59;41.86;99100.25;5061269;28;20044;-72
2022/11/22 03:16:45;;;;;;;4.18;1.23;;;;;;;18.58;42.09;99103.06;5062349;28;20736;-72
2022/11/22 03:19:11;;;;;;;3.83;1.15;;;;;;;18.60;42.05;99107.19;5064737;28;20029;-72
2022/11/22 03:21:38;;;;;;;3.97;1.30;;;;;;;18.55;42.09;99101.63;5064379;28;20027;-73
2022/11/22 03:24:04;;;;;;;3.67;1.30;;;;;;;18.56;42.03;99110.34;5064082;28;20646;-73
2022/11/22 03:26:30;;;;;;;4.43;1.20;;;;;;;18.57;41.70;99117.28;5063205;28;20087;-72
2022/11/22 03:28:55;;;;;;;4.68;1.60;;;;;;;18.54;41.91;99099.97;5064242;28;20035;-74
2022/11/22 03:31:20;;;;;;;3.75;1.13;;;;;;;18.55;41.87;99101.63;5064720;28;20034;-76
2022/11/22 03:33:46;;;;;;;4.60;1.02;;;;;;;18.53;41.62;99111.50;5063626;28;20087;-73
2022/11/22 03:36:11;;;;;;;4.07;1.20;;;;;;;18.53;41.51;99108.03;5062787;28;20029;-74
2022/11/22 03:38:36;;;;;;;4.32;1.23;;;;;;;18.53;41.77;99111.50;5064111;28;20032;-71
2022/11/22 03:41:02;;;;;;;4.43;1.35;;;;;;;18.53;41.43;99106.22;5064055;28;20102;-73
2022/11/22 03:43:27;;;;;;;2.78;0.90;;;;;;;18.53;41.48;99108.84;5063611;28;20046;-72
2022/11/22 03:45:52;;;;;;;5.03;1.30;;;;;;;18.52;41.44;99115.16;5064109;28;20033;-72
2022/11/22 03:48:18;;;;;;;3.67;1.17;;;;;;;18.52;41.56;99117.78;5063602;28;20103;-74
2022/11/22 03:50:44;;;;;;;4.57;1.10;;;;;;;18.52;41.52;99114.31;5064175;28;20039;-73
2022/11/22 03:53:10;;;;;;;4.10;1.15;;;;;;;18.53;41.30;99116.78;5063417;28;20037;-72
2022/11/22 03:55:35;;;;;;;3.63;1.30;;;;;;;18.53;41.51;99121.22;5064824;28;20077;-72
2022/11/22 03:58:01;;;;;;;4.38;1.30;;;;;;;18.41;41.50;99102.31;5064528;28;20086;-73
2022/11/22 04:00:26;;;;;;;4.63;1.15;;;;;;;18.52;41.27;99122.22;5064433;28;20036;-72
2022/11/22 04:02:51;;;;;;;3.70;1.00;;;;;;;18.48;41.25;99124.38;5064166;28;20143;-73
2022/11/22 04:05:17;;;;;;;4.53;1.30;;;;;;;18.49;41.05;99124.22;5063950;28;20043;-73
2022/11/22 04:07:42;;;;;;;3.42;1.00;;;;;;;18.48;41.58;99119.09;5061804;28;20269;-74
2022/11/22 04:10:08;;;;;;;3.75;1.00;;;;;;;18.48;41.46;99119.09;5064170;28;20116;-74
2022/11/22 04:12:33;;;;;;;3.92;1.10;;;;;;;18.44;41.39;99108.06;5064217;28;20469;-73
2022/11/22 04:15:08;;;;;;;4.13;1.50;;;;;;;18.46;41.52;99118.44;5064031;28;20041;-74
2022/11/22 04:17:39;;;;;;;2.55;0.90;;;;;;;18.44;41.55;99136.28;5063920;28;20480;-73
2022/11/22 04:22:57;;;;;;;4.45;1.25;;;;;;;18.43;41.07;99151.25;5064011;28;20047;-71
2022/11/22 04:25:24;;;;;;;4.78;1.30;;;;;;;18.46;41.20;99158.03;5079342;28;20437;-72
2022/11/22 04:27:49;;;;;;;3.78;1.10;;;;;;;18.43;41.26;99158.34;5063513;28;20029;-73
2022/11/22 04:30:15;;;;;;;3.40;1.10;;;;;;;18.41;40.80;99147.97;5062243;28;20492;-72
2022/11/22 04:32:46;;;;;;;5.57;2.17;;;;;;;18.44;40.80;99141.53;5063459;28;20257;-76
2022/11/22 04:35:13;;;;;;;3.95;1.20;;;;;;;18.42;41.14;99139.06;5063606;28;20102;-72
2022/11/22 04:37:39;;;;;;;4.13;1.10;;;;;;;18.39;41.10;99141.19;5063279;28;20025;-73
2022/11/22 04:40:05;;;;;;;2.90;0.90;;;;;;;18.39;41.00;99147.31;5063240;28;20040;-72
2022/11/22 04:45:14;;;;;;;4.97;1.23;;;;;;;18.39;41.05;99144.69;5063696;28;20032;-73
2022/11/22 04:53:07;;;;;;;4.45;1.10;;;;;;;18.38;40.84;99158.84;5062940;28;20085;-73
2022/11/22 04:55:32;;;;;;;4.70;1.15;;;;;;;18.34;41.10;99154.91;5063208;28;20037;-74
2022/11/22 04:57:57;;;;;;;5.50;1.40;;;;;;;18.37;40.92;99151.09;5063244;28;20059;-74
2022/11/22 05:00:23;;;;;;;3.87;1.20;;;;;;;18.33;40.97;99152.44;5062907;28;20792;-73
2022/11/22 05:02:48;;;;;;;4.97;1.42;;;;;;;18.35;41.10;99156.53;5062229;28;20293;-74
2022/11/22 05:05:13;;;;;;;3.72;1.10;;;;;;;18.34;40.73;99159.34;5063046;28;20082;-73
2022/11/22 05:07:39;;;;;;;4.57;1.35;;;;;;;18.34;40.27;99161.97;5062696;28;20119;-74
2022/11/22 05:10:04;;;;;;;3.15;0.90;;;;;;;18.31;40.54;99166.59;5063157;28;20032;-74
2022/11/22 05:12:29;;;;;;;5.00;1.45;;;;;;;18.33;40.65;99161.16;5060982;28;20032;-73
2022/11/22 05:14:55;;;;;;;4.30;1.20;;;;;;;18.30;40.44;99161.50;5063917;28;20040;-74
2022/11/22 05:17:20;;;;;;;4.87;1.30;;;;;;;18.31;40.65;99152.63;5063481;28;20273;-73
2022/11/22 05:19:45;;;;;;;4.75;1.10;;;;;;;18.31;40.72;99160.53;5063217;28;20271;-73
2022/11/22 05:22:10;;;;;;;4.13;1.17;;;;;;;18.30;40.45;99164.94;5063334;28;20039;-73
2022/11/22 05:24:36;;;;;;;3.85;1.10;;;;;;;18.31;40.78;99155.25;5062510;28;20281;-75
2022/11/22 05:27:01;;;;;;;4.50;1.23;;;;;;;18.31;40.73;99160.53;5060822;28;21313;-75
2022/11/22 05:29:26;;;;;;;4.72;1.10;;;;;;;18.29;40.46;99158.06;5062853;28;20038;-73
2022/11/22 05:31:52;;;;;;;3.38;1.02;;;;;;;18.24;40.43;99141.88;5062210;28;20060;-73
2022/11/22 05:34:17;;;;;;;3.75;1.05;;;;;;;18.24;40.50;99144.50;5061691;28;20056;-73
2022/11/22 05:36:42;;;;;;;4.45;1.25;;;;;;;18.26;40.55;99147.00;5060579;28;20488;-73
2022/11/22 05:39:07;;;;;;;5.38;1.27;;;;;;;18.29;40.54;99151.94;5061500;28;20175;-74
2022/11/22 05:41:33;;;;;;;5.23;1.20;;;;;;;18.25;40.45;99148.81;5061834;28;20538;-73
2022/11/22 05:43:58;;;;;;;4.83;1.40;;;;;;;18.27;40.48;99153.91;5061641;28;20935;-76
2022/11/22 05:46:26;;;;;;;3.95;1.00;;;;;;;18.26;40.39;99152.25;5062366;28;20380;-74
2022/11/22 05:48:53;;;;;;;4.80;1.10;;;;;;;18.26;40.25;99155.75;5062333;28;20036;-75
2022/11/22 05:51:21;;;;;;;2.20;0.82;;;;;;;18.23;40.38;99157.88;5062536;28;20033;-72
2022/11/22 05:53:46;;;;;;;4.30;1.00;;;;;;;18.25;40.30;99154.09;5061689;28;20037;-73
2022/11/22 05:56:17;;;;;;;2.50;0.80;;;;;;;18.24;40.36;99148.97;5061684;28;20265;-73
2022/11/22 05:58:44;;;;;;;2.88;0.90;;;;;;;18.19;40.51;99135.47;5060488;28;20526;-73
2022/11/22 06:01:12;;;;;;;3.75;1.02;;;;;;;18.19;40.87;99140.75;5061652;28;20090;-72
2022/11/22 06:03:37;;;;;;;4.32;1.00;;;;;;;18.20;40.77;99145.84;5061600;28;20056;-73
2022/11/22 06:06:04;;;;;;;3.60;1.10;;;;;;;18.16;41.40;99141.91;5061415;28;20063;-73
2022/11/22 06:08:31;;;;;;;3.13;0.95;;;;;;;18.20;41.40;99155.56;5061673;28;20032;-73
2022/11/22 06:11:03;;;;;;;2.10;0.75;;;;;;;18.16;41.80;99149.81;5062158;28;20028;-76
2022/11/22 06:13:33;;;;;;;2.72;1.02;;;;;;;18.19;41.68;99146.84;5061715;28;20943;-73
2022/11/22 06:15:59;;;;;;;2.88;0.73;;;;;;;18.22;41.53;99151.78;5062166;28;20262;-73
2022/11/22 06:18:24;;;;;;;3.58;1.08;;;;;;;18.21;41.40;99146.66;5062171;28;21141;-72
2022/11/22 06:20:49;;;;;;;3.72;0.80;;;;;;;18.24;41.70;99151.63;5077415;28;20072;-73
2022/11/22 06:23:15;;;;;;;2.57;0.73;;;;;;;18.29;41.33;99154.56;5061040;28;20036;-72
2022/11/22 06:25:40;;;;;;;2.23;0.70;;;;;;;18.36;41.15;99166.13;5061550;28;20669;-72
2022/11/22 06:28:05;;;;;;;2.80;0.80;;;;;;;18.37;41.60;99169.56;5061376;28;20300;-73
2022/11/22 06:30:30;;;;;;;2.53;0.80;;;;;;;18.37;41.33;99156.38;5061682;28;20327;-74
2022/11/22 06:32:56;;;;;;;2.90;0.97;;;;;;;18.41;41.20;99160.34;5061206;28;20424;-75
2022/11/22 06:35:21;;;;;;;2.55;1.13;;;;;;;18.36;41.39;99152.94;5061501;28;20305;-75
2022/11/22 06:37:47;;;;;;;3.17;0.80;;;;;;;18.40;41.39;99170.03;5061273;28;20033;-73
2022/11/22 06:40:14;;;;;;;3.45;0.90;;;;;;;18.43;41.43;99169.72;5060970;28;20029;-74
2022/11/22 06:42:39;;;;;;;2.78;0.75;;;;;;;18.43;41.06;99171.53;5061545;28;20079;-73
2022/11/22 06:45:05;;;;;;;3.67;0.90;;;;;;;18.46;41.08;99179.94;5060880;28;20791;-74
2022/11/22 06:47:30;;;;;;;3.22;0.90;;;;;;;18.48;41.05;99177.13;5061692;28;20262;-73
2022/11/22 06:49:56;;;;;;;2.47;0.77;;;;;;;18.43;41.15;99164.44;5061825;28;20036;-73
2022/11/22 06:52:21;;;;;;;2.63;0.80;;;;;;;18.48;41.24;99175.34;5065245;28;20074;-72
2022/11/22 06:54:46;;;;;;;3.80;1.00;;;;;;;18.49;41.15;99171.69;5064243;28;20119;-75
2022/11/22 06:57:13;;;;;;;2.60;0.90;;;;;;;18.51;41.16;99178.63;5065388;28;20032;-75
2022/11/22 06:59:38;;;;;;;2.38;0.93;;;;;;;18.52;40.89;99186.38;5064104;28;20295;-73
2022/11/22 07:02:03;;;;;;;2.97;0.90;;;;;;;18.53;40.81;99190.63;5065420;28;20028;-73
2022/11/22 07:04:29;;;;;;;3.55;0.93;;;;;;;18.53;40.68;99192.47;5064449;28;20109;-73
2022/11/22 07:06:54;;;;;;;2.72;0.70;;;;;;;18.54;40.93;99200.22;5064663;28;20036;-73
2022/11/22 07:09:19;;;;;;;2.92;0.90;;;;;;;18.59;40.94;99205.81;5063603;28;20032;-74
2022/11/22 07:11:44;;;;;;;2.47;0.75;;;;;;;18.59;40.90;99211.06;5065067;28;20499;-74
2022/11/22 07:14:10;;;;;;;3.03;0.93;;;;;;;18.59;40.77;99205.81;5065058;28;20043;-75
2022/11/22 07:16:37;;;;;;;2.90;0.80;;;;;;;18.60;40.84;99202.19;5062898;28;20269;-75
2022/11/22 07:19:03;;;;;;;2.22;0.90;;;;;;;18.61;40.98;99197.72;5065188;28;20488;-75
2022/11/22 07:21:28;;;;;;;3.90;0.80;;;;;;;18.58;41.20;99188.34;5064944;28;20857;-72
2022/11/22 07:23:54;;;;;;;3.78;0.85;;;;;;;18.64;41.00;99197.38;5064721;28;20029;-72
2022/11/22 07:26:22;;;;;;;2.33;0.63;;;;;;;18.66;40.92;99192.78;5064901;28;20036;-74
2022/11/22 07:28:48;;;;;;;2.60;0.80;;;;;;;18.63;40.92;99201.03;5064398;28;20043;-73
2022/11/22 07:31:14;;;;;;;2.20;0.68;;;;;;;18.68;40.69;99206.63;5063368;28;20040;-75
2022/11/22 07:33:41;;;;;;;3.08;0.85;;;;;;;18.64;40.83;99200.03;5064371;28;20053;-74
2022/11/22 07:36:18;;;;;;;2.85;0.90;;;;;;;18.60;40.88;99193.44;5065050;28;20032;-73
2022/11/22 07:38:44;;;;;;;3.70;0.90;;;;;;;18.62;40.87;99202.81;5064606;28;20028;-74
2022/11/22 07:41:10;;;;;;;4.25;0.90;;;;;;;18.63;40.64;99201.84;5064472;28;20039;-72
2022/11/22 07:43:36;;;;;;;4.03;1.08;;;;;;;18.68;40.91;99207.44;5064936;28;20412;-73
2022/11/22 07:46:03;;;;;;;3.97;1.05;;;;;;;18.65;41.05;99199.03;5064920;28;20039;-74
2022/11/22 07:48:28;;;;;;;2.38;0.70;;;;;;;18.69;41.08;99202.97;5027458;28;20051;-73
2022/11/22 07:50:54;;;;;;;2.30;0.80;;;;;;;18.67;41.14;99203.19;5064037;28;20033;-73
2022/11/22 07:53:19;;;;;;;3.28;1.00;;;;;;;18.70;41.27;99204.63;5064007;28;20040;-75
2022/11/22 07:55:44;;;;;;;2.30;0.73;;;;;;;18.71;41.55;99200.16;5063610;28;20413;-71
2022/11/22 07:58:09;;;;;;;3.47;0.90;;;;;;;18.69;41.60;99202.97;5064422;28;20036;-73
2022/11/22 08:00:35;;;;;;;2.83;0.70;;;;;;;18.72;41.71;99209.75;5064143;28;20114;-73
2022/11/22 08:03:00;;;;;;;3.25;0.90;;;;;;;18.74;41.60;99202.47;5063549;28;20265;-73
2022/11/22 08:05:25;;;;;;;2.88;0.82;;;;;;;18.71;41.46;99211.56;5064427;28;20028;-71
2022/11/22 08:07:52;;;;;;;2.58;0.80;;;;;;;18.72;41.71;99207.91;5064079;28;20036;-72
2022/11/22 08:10:19;;;;;;;1.85;0.70;;;;;;;18.77;41.92;99217.97;5064217;28;20040;-71
2022/11/22 08:12:44;;;;;;;3.10;0.80;;;;;;;18.76;42.12;99209.25;5065307;28;20397;-72
2022/11/22 08:15:11;;;;;;;2.90;0.80;;;;;;;18.77;42.17;99213.53;5065794;28;20036;-72
2022/11/22 08:17:37;;;;;;;2.58;0.70;;;;;;;18.76;42.14;99217.16;5067514;28;20457;-72
2022/11/22 08:20:03;;;;;;;2.33;0.65;;;;;;;18.82;42.02;99215.69;5064351;28;20103;-73
2022/11/22 08:22:29;;;;;;;3.42;1.10;;;;;;;18.85;41.75;99216.19;5063124;28;20392;-73
2022/11/22 08:24:54;;;;;;;2.55;0.80;;;;;;;18.90;41.86;99214.84;5063340;28;20032;-75
2022/11/22 08:27:19;;;;;;;4.22;1.42;;;;;;;18.88;41.72;99217.66;5063669;28;20063;-74
2022/11/22 08:29:45;;;;;;;3.75;0.95;;;;;;;18.89;41.80;99223.78;5061867;28;20134;-73
2022/11/22 08:32:10;;;;;;;4.70;1.08;;;;;;;18.92;41.43;99218.16;5063294;28;20127;-73
2022/11/22 08:34:35;;;;;;;3.43;1.10;;;;;;;18.92;41.36;99223.44;5061255;28;20056;-72
2022/11/22 08:37:00;;;;;;;2.83;0.90;;;;;;;18.95;41.45;99223.91;5062570;28;20763;-71
2022/11/22 08:39:26;;;;;;;4.65;1.10;;;;;;;18.97;41.37;99224.56;5062241;28;20316;-75
2022/11/22 08:41:51;;;;;;;8.18;1.20;;;;;;;18.95;41.36;99223.91;5061944;28;20024;-74
2022/11/22 08:44:16;;;;;;;3.70;1.10;;;;;;;18.98;41.04;99226.22;5060209;28;20028;-74
2022/11/22 08:46:42;;;;;;;4.30;1.13;;;;;;;19.03;41.14;99234.44;5058676;28;20461;-73
2022/11/22 08:49:10;;;;;;;5.78;1.00;;;;;;;19.05;41.50;99236.09;5061731;28;20292;-71
2022/11/22 08:51:35;;;;;;;3.42;0.93;;;;;;;19.08;41.06;99235.78;5058739;28;20139;-73
2022/11/22 08:54:01;;;;;;;2.60;0.70;;;;;;;19.05;41.36;99226.34;5061114;28;20111;-72
2022/11/22 08:56:26;;;;;;;4.07;1.00;;;;;;;19.07;41.43;99234.09;5060746;28;20063;-72
2022/11/22 08:58:53;;;;;;;4.40;1.00;;;;;;;19.05;41.10;99230.81;5059551;28;20474;-71
2022/11/22 09:01:20;;;;;;;2.60;0.68;;;;;;;19.05;41.74;99226.34;5059986;28;20273;-73
2022/11/22 09:03:45;;;;;;;2.42;0.80;;;;;;;19.03;41.59;99225.72;5060922;28;20038;-73
2022/11/22 09:06:13;;;;;;;4.70;0.77;;;;;;;19.02;41.86;99222.22;5060861;28;20126;-78
2022/11/22 09:08:39;;;;;;;2.95;0.75;;;;;;;18.94;41.81;99218.81;5060660;28;20115;-77
2022/11/22 09:11:10;;;;;;;3.55;0.80;;;;;;;19.01;41.78;99231.16;5061493;28;20139;-76
2022/11/22 09:13:35;;;;;;;2.78;0.75;;;;;;;19.02;42.17;99234.63;5060821;28;20029;-73
2022/11/22 09:16:19;;;;;;;2.92;0.82;;;;;;;19.03;42.03;99245.00;5061244;28;20186;-72
2022/11/22 09:18:45;;;;;;;2.00;0.90;;;;;;;19.00;41.59;99236.59;5061856;28;20086;-72
2022/11/22 09:21:17;;;;;;;3.78;0.60;;;;;;;18.97;41.64;99229.03;5060902;28;20063;-75
2022/11/22 09:23:44;;;;;;;3.92;1.00;;;;;;;18.99;41.81;99238.44;5061644;28;20082;-74
2022/11/22 09:26:13;;;;;;;2.42;0.70;;;;;;;18.99;41.86;99234.94;5060709;28;20040;-76
2022/11/22 09:28:39;;;;;;;1.90;0.75;;;;;;;19.01;42.12;99239.09;5059331;28;20234;-74
2022/11/22 09:31:09;;;;;;;6.03;1.05;;;;;;;18.97;42.03;99250.97;5060608;28;20174;-74
2022/11/22 09:33:36;;;;;;;3.33;0.93;;;;;;;18.96;41.68;99240.56;5061058;28;20048;-73
2022/11/22 09:36:04;;;;;;;4.72;0.70;;;;;;;18.95;42.13;99233.66;5060352;28;20055;-75
2022/11/22 09:38:30;;;;;;;2.13;0.70;;;;;;;18.93;41.96;99231.19;5059224;28;20039;-72
2022/11/22 09:40:56;;;;;;;5.78;1.25;;;;;;;18.92;41.92;99236.63;5060393;28;20048;-72
2022/11/22 09:43:29;;;;;;;3.83;0.80;;;;;;;18.96;42.09;99237.94;5059772;28;20037;-73
2022/11/22 09:46:17;;;;;;;4.43;1.02;;;;;;;18.98;42.12;99241.25;5059085;28;20102;-73
2022/11/22 09:49:09;;;;;;;3.72;1.00;;;;;;;19.05;41.94;99241.38;5059761;28;20575;-73
2022/11/22 09:51:48;;;;;;;4.10;1.00;;;;;;;19.03;41.66;99238.91;5060657;28;20060;-74
2022/11/22 09:54:22;;;;;;;3.97;1.08;;;;;;;19.06;42.00;99241.22;5060733;28;20040;-75
2022/11/22 09:56:51;;;;;;;3.40;0.98;;;;;;;19.10;41.95;99239.06;5058504;28;20075;-74
2022/11/22 09:59:29;;;;;;;3.42;0.80;;;;;;;19.12;41.59;99248.47;5060606;28;20051;-76
2022/11/22 10:02:14;;;;;;;2.25;0.80;;;;;;;19.15;41.76;99247.28;5060479;28;20361;-75
2022/11/22 10:04:44;;;;;;;3.22;1.05;;;;;;;19.17;41.28;99245.31;5060784;28;20064;-77
2022/11/22 10:07:28;;;;;;;1.73;0.70;;;;;;;19.23;41.61;99246.44;5060151;28;20028;-75
2022/11/22 10:10:01;;;;;;;4.50;0.90;;;;;;;19.24;41.49;99251.56;5060206;28;20032;-74
2022/11/22 10:12:50;;;;;;;5.65;1.10;;;;;;;19.34;41.26;99260.13;5058141;28;20029;-72
2022/11/22 10:15:34;;;;;;;4.55;0.90;;;;;;;19.35;41.02;99251.19;5052448;28;20055;-73
2022/11/22 10:18:04;;;;;;;6.72;1.00;;;;;;;19.32;41.15;99242.78;5059833;28;20201;-73
2022/11/22 10:20:36;;;;;;;3.00;0.93;;;;;;;19.41;40.87;99252.31;5060105;28;20090;-72
2022/11/22 10:23:01;;;;;;;3.13;0.80;;;;;;;19.45;40.70;99244.88;5058282;28;20159;-71
2022/11/22 10:25:46;;;;;;;2.58;0.80;;;;;;;19.39;41.07;99241.94;5059525;28;20028;-70
2022/11/22 10:28:16;;;;;;;2.95;0.80;;;;;;;19.46;40.81;99239.41;5033061;28;20040;-72
2022/11/22 10:33:17;;;;;;;3.53;1.00;;;;;;;19.43;40.94;99233.66;5036367;28;20505;-72
2022/11/22 10:36:09;;;;;;;4.93;0.82;;;;;;;19.40;40.70;99238.28;4997246;28;20447;-73
2022/11/22 10:38:43;;;;;;;4.95;0.82;;;;;;;19.42;40.47;99227.53;5002911;28;20026;-73
2022/11/22 10:41:11;;;;;;;2.15;0.88;;;;;;;19.46;40.46;99228.03;5016638;28;20100;-74
2022/11/22 10:43:50;;;;;;;2.42;0.80;;;;;;;19.49;40.56;99232.97;5017177;28;20057;-72
2022/11/22 10:46:37;;;;;;;5.22;0.80;;;;;;;19.54;40.43;99226.16;5005278;28;20033;-72
2022/11/22 10:49:42;;;;;;;3.65;0.80;;;;;;;19.55;40.52;99225.19;5017160;28;20394;-71
2022/11/22 10:52:37;;;;;;;3.97;1.20;;;;;;;19.53;40.47;99224.50;5003334;28;20049;-77
2022/11/22 10:55:21;;;;;;;3.83;0.90;;;;;;;19.55;40.32;99217.25;5001839;28;20121;-78
2022/11/22 10:58:25;;;;;;;4.80;0.90;;;;;;;19.60;40.43;99218.53;5008075;28;20042;-75
2022/11/22 11:01:02;;;;;;;4.72;0.90;;;;;;;19.58;39.91;99218.69;4986659;28;20092;-75
2022/11/22 11:03:37;;;;;;;3.15;0.90;;;;;;;19.56;40.37;99213.59;5013214;28;20033;-80
2022/11/22 11:06:33;;;;;;;2.55;0.80;;;;;;;19.56;40.44;99210.94;4988850;28;20373;-79
2022/11/22 11:09:11;;;;;;;6.43;0.88;;;;;;;19.61;40.16;99209.63;4988863;28;20030;-75
2022/11/22 11:11:39;;;;;;;2.78;0.80;;;;;;;19.60;40.15;99200.88;5000214;28;20037;-77
2022/11/22 11:14:21;;;;;;;4.82;0.98;;;;;;;19.56;40.07;99187.16;5007506;28;20465;-77
2022/11/22 11:16:48;;;;;;;5.38;0.90;;;;;;;19.65;40.15;99195.06;5008225;28;20434;-73
2022/11/22 11:19:17;;;;;;;2.83;0.80;;;;;;;19.60;40.25;99192.09;5002290;28;20030;-74
2022/11/22 11:21:43;;;;;;;3.30;0.80;;;;;;;19.66;40.18;99200.19;5012703;28;20498;-76
2022/11/22 11:24:14;;;;;;;4.05;0.93;;;;;;;19.61;40.38;99196.41;5005026;28;20022;-72
2022/11/22 11:26:41;;;;;;;3.20;0.90;;;;;;;19.57;40.41;99185.38;5006440;28;20045;-73
2022/11/22 11:29:15;;;;;;;2.33;0.70;;;;;;;19.58;40.29;99195.75;5007881;28;20037;-70
2022/11/22 11:31:44;;;;;;;;;;;;;;;19.71;40.17;99187.25;5005930;28;20057;-71
2022/11/22 11:34:19;;;;;;;5.13;1.00;;;;;;;19.70;40.38;99187.44;5004491;28;19920;-74
2022/11/22 11:36:45;;;;;;;4.63;1.00;;;;;;;19.62;40.57;99175.09;5001250;28;20042;-76
2022/11/22 11:39:20;;;;;;;4.00;0.98;;;;;;;19.62;40.61;99183.03;5006873;28;20065;-74
2022/11/22 11:41:46;;;;;;;2.55;0.80;;;;;;;19.65;40.62;99180.03;5013020;28;20048;-78
2022/11/22 11:44:36;;;;;;;2.13;0.80;;;;;;;19.62;40.42;99183.03;4988917;28;20034;-78
2022/11/22 11:47:03;;;;;;;3.05;0.88;;;;;;;19.61;40.58;99169.97;5009791;28;20042;-75
2022/11/22 11:49:33;;;;;;;3.72;0.75;;;;;;;19.61;40.42;99175.25;4996362;28;20037;-77
2022/11/22 11:52:27;;;;;;;3.30;0.80;;;;;;;19.64;40.49;99180.19;4994317;28;20034;-73